Home > Products > Valid Products > TAF

000
FTUS44 KHUN 260526
TAFHSV
TAF
KHSV 260526Z 2606/2706 33004KT P6SM BKN100 OVC200
     FM260900 VRB02KT P6SM SCT250
     FM262100 16009KT P6SM OVC100
     FM270300 20006KT P6SM -RA BKN040=



000
FTUS44 KHUN 260526
TAFMSL
TAF
KMSL 260526Z 2606/2706 31004KT P6SM SCT200
     FM260700 VRB02KT P6SM SCT250
     FM262100 18010KT P6SM OVC100
     FM270200 24006KT P6SM -RA BKN040=



000
FTUS44 KHUN 260526
TAFHSV
TAF
KHSV 260526Z 2606/2706 33004KT P6SM BKN100 OVC200
     FM260900 VRB02KT P6SM SCT250
     FM262100 16009KT P6SM OVC100
     FM270300 20006KT P6SM -RA BKN040=



000
FTUS44 KHUN 260526
TAFMSL
TAF
KMSL 260526Z 2606/2706 31004KT P6SM SCT200
     FM260700 VRB02KT P6SM SCT250
     FM262100 18010KT P6SM OVC100
     FM270200 24006KT P6SM -RA BKN040=



000
FTUS44 KHUN 252334
TAFMSL
TAF
KMSL 252334Z 2600/2624 31005KT P6SM BKN150 OVC200
     FM260700 VRB02KT P6SM SCT250
     FM262100 18010KT P6SM OVC100=



000
FTUS44 KHUN 252334
TAFHSV
TAF
KHSV 252334Z 2600/2624 33004KT P6SM BKN130 OVC200
     FM260900 VRB02KT P6SM SCT250
     FM262100 16009KT P6SM OVC100=



000
FTUS44 KHUN 252334
TAFMSL
TAF
KMSL 252334Z 2600/2624 31005KT P6SM BKN150 OVC200
     FM260700 VRB02KT P6SM SCT250
     FM262100 18010KT P6SM OVC100=



000
FTUS44 KHUN 252334
TAFHSV
TAF
KHSV 252334Z 2600/2624 33004KT P6SM BKN130 OVC200
     FM260900 VRB02KT P6SM SCT250
     FM262100 16009KT P6SM OVC100=



000
FTUS44 KHUN 251720
TAFMSL
TAF
KMSL 251720Z 2518/2618 30005KT P6SM SKC
     FM260000 30003KT P6SM BKN150 OVC250
     FM260700 VRB02KT P6SM SCT250=



000
FTUS44 KHUN 251720
TAFHSV
TAF
KHSV 251720Z 2518/2618 33005KT P6SM SCT180 BKN250
     FM260000 33004KT P6SM BKN100 OVC150
     FM260900 VRB02KT P6SM SCT250=



000
FTUS44 KHUN 251720
TAFMSL
TAF
KMSL 251720Z 2518/2618 30005KT P6SM SKC
     FM260000 30003KT P6SM BKN150 OVC250
     FM260700 VRB02KT P6SM SCT250=



000
FTUS44 KHUN 251720
TAFHSV
TAF
KHSV 251720Z 2518/2618 33005KT P6SM SCT180 BKN250
     FM260000 33004KT P6SM BKN100 OVC150
     FM260900 VRB02KT P6SM SCT250=



000
FTUS44 KHUN 251120
TAFHSV
TAF
KHSV 251120Z 2512/2612 VRB04KT P6SM SKC
     FM251400 33007KT P6SM BKN200
     FM260100 VRB03KT P6SM SCT050 SCT200=



000
FTUS44 KHUN 251120
TAFMSL
TAF
KMSL 251120Z 2512/2612 VRB03KT P6SM SKC
     FM251400 33006KT P6SM BKN250
     FM260100 VRB02KT P6SM SCT070 SCT250=



000
FTUS44 KHUN 251120
TAFMSL
TAF
KMSL 251120Z 2512/2612 VRB03KT P6SM SKC
     FM251400 33006KT P6SM BKN250
     FM260100 VRB02KT P6SM SCT070 SCT250=



000
FTUS44 KHUN 251120
TAFHSV
TAF
KHSV 251120Z 2512/2612 VRB04KT P6SM SKC
     FM251400 33007KT P6SM BKN200
     FM260100 VRB03KT P6SM SCT050 SCT200=



000
FTUS44 KHUN 250520
TAFHSV
TAF
KHSV 250520Z 2506/2606 VRB04KT P6SM SCT250
     FM251400 34006KT P6SM SCT200
     FM260100 32004KT P6SM SCT050=



000
FTUS44 KHUN 250520
TAFHSV
TAF
KHSV 250520Z 2506/2606 VRB04KT P6SM SCT250
     FM251400 34006KT P6SM SCT200
     FM260100 32004KT P6SM SCT050=



000
FTUS44 KHUN 250520
TAFMSL
TAF
KMSL 250520Z 2506/2606 VRB03KT P6SM FEW250
     FM251400 33006KT P6SM SCT200
     FM260100 32003KT P6SM SCT060=



000
FTUS44 KHUN 250520
TAFMSL
TAF
KMSL 250520Z 2506/2606 VRB03KT P6SM FEW250
     FM251400 33006KT P6SM SCT200
     FM260100 32003KT P6SM SCT060=



000
FTUS44 KHUN 242320
TAFMSL
TAF
KMSL 242320Z 2500/2524 VRB03KT P6SM SKC
     FM251400 33006KT P6SM SKC=



000
FTUS44 KHUN 242320
TAFMSL
TAF
KMSL 242320Z 2500/2524 VRB03KT P6SM SKC
     FM251400 33006KT P6SM SKC=



000
FTUS44 KHUN 242320
TAFHSV
TAF
KHSV 242320Z 2500/2524 27004KT P6SM SKC
     FM251400 34006KT P6SM SKC=



000
FTUS44 KHUN 242320
TAFHSV
TAF
KHSV 242320Z 2500/2524 27004KT P6SM SKC
     FM251400 34006KT P6SM SKC=



000
FTUS44 KHUN 241724
TAFHSV
TAF
KHSV 241724Z 2418/2518 26013G19KT P6SM SCT040
     FM242200 28012KT P6SM SCT030
     FM250000 VRB05KT P6SM SKC
     FM251400 34006KT P6SM SKC=



000
FTUS44 KHUN 241724
TAFMSL
TAF
KMSL 241724Z 2418/2518 27013G19KT P6SM SCT040
     FM242000 27010KT P6SM SCT030
     FM250000 VRB05KT P6SM SKC
     FM251400 33006KT P6SM SKC=



000
FTUS44 KHUN 241724
TAFHSV
TAF
KHSV 241724Z 2418/2518 26013G19KT P6SM SCT040
     FM242200 28012KT P6SM SCT030
     FM250000 VRB05KT P6SM SKC
     FM251400 34006KT P6SM SKC=



000
FTUS44 KHUN 241724
TAFMSL
TAF
KMSL 241724Z 2418/2518 27013G19KT P6SM SCT040
     FM242000 27010KT P6SM SCT030
     FM250000 VRB05KT P6SM SKC
     FM251400 33006KT P6SM SKC=



000
FTUS44 KHUN 241120
TAFHSV
TAF
KHSV 241120Z 2412/2512 23015G30KT P6SM BKN025
     FM241600 26015G25KT P6SM BKN030
     FM242000 26010G20KT P6SM SCT030
     FM250000 VRB05KT P6SM SKC=



000
FTUS44 KHUN 241120
TAFMSL
TAF
KMSL 241120Z 2412/2512 23015G30KT P6SM BKN025
     FM241500 26015G25KT P6SM BKN030
     FM241900 27010G20KT P6SM SCT030
     FM242300 VRB05KT P6SM SKC=



000
FTUS44 KHUN 241120
TAFHSV
TAF
KHSV 241120Z 2412/2512 23015G30KT P6SM BKN025
     FM241600 26015G25KT P6SM BKN030
     FM242000 26010G20KT P6SM SCT030
     FM250000 VRB05KT P6SM SKC=



000
FTUS44 KHUN 241120
TAFMSL
TAF
KMSL 241120Z 2412/2512 23015G30KT P6SM BKN025
     FM241500 26015G25KT P6SM BKN030
     FM241900 27010G20KT P6SM SCT030
     FM242300 VRB05KT P6SM SKC=



000
FTUS44 KHUN 240559 CCA
TAFMSL
TAF COR
KMSL 240559Z 2406/2506 21012G20KT P6SM BKN015 OVC035
     FM241200 23012G20KT P6SM VCSH BKN025 BKN035
     FM241400 26010KT P6SM SCT030 SCT250
     FM242300 VRB05KT P6SM SKC=



000
FTUS44 KHUN 240540
TAFMSL
TAF
KMSL 240540Z 2406/2506 21012G20KT P6SM SCT015 BKN035
     FM241200 23012G20KT P6SM VCSH BKN025 BKN035
     FM241400 26010KT P6SM SCT030 SCT250
     FM242300 VRB05KT P6SM SKC=



000
FTUS44 KHUN 240540
TAFHSV
TAF
KHSV 240540Z 2406/2506 21012G20KT P6SM BKN015 OVC035
     FM241400 23012G20KT P6SM VCSH BKN025 BKN035
     FM241600 26010KT P6SM SCT030 SCT250
     FM242300 VRB05KT P6SM SKC=



000
FTUS44 KHUN 240540
TAFHSV
TAF
KHSV 240540Z 2406/2506 21012G20KT P6SM BKN015 OVC035
     FM241400 23012G20KT P6SM VCSH BKN025 BKN035
     FM241600 26010KT P6SM SCT030 SCT250
     FM242300 VRB05KT P6SM SKC=



000
FTUS44 KHUN 240540
TAFMSL
TAF
KMSL 240540Z 2406/2506 21012G20KT P6SM SCT015 BKN035
     FM241200 23012G20KT P6SM VCSH BKN025 BKN035
     FM241400 26010KT P6SM SCT030 SCT250
     FM242300 VRB05KT P6SM SKC=



000
FTUS44 KHUN 232343 CCA
TAFMSL
TAF COR
KMSL 232343Z 2400/2424 17012G20KT P6SM VCSH SCT025 BKN040 OVC070
     FM240200 20012G20KT P6SM BKN025 OVC040
     FM241200 22012G20KT P6SM VCSH BKN025 OVC040
     FM241500 26010KT P6SM SCT035 SCT250=



000
FTUS44 KHUN 232343 CCA
TAFHSV
TAF COR
KHSV 232343Z 2400/2424 17012G20KT P6SM VCSH SCT025 BKN040 OVC070
     FM240200 20012G20KT P6SM BKN025 OVC040
     FM241400 22012G20KT P6SM VCSH BKN025 OVC040
     FM241700 26010KT P6SM SCT035 SCT250=



000
FTUS44 KHUN 232343 CCA
TAFMSL
TAF COR
KMSL 232343Z 2400/2424 17012G20KT P6SM VCSH SCT025 BKN040 OVC070
     FM240200 20012G20KT P6SM BKN025 OVC040
     FM241200 22012G20KT P6SM VCSH BKN025 OVC040
     FM241500 26010KT P6SM SCT035 SCT250=



000
FTUS44 KHUN 232343 CCA
TAFHSV
TAF COR
KHSV 232343Z 2400/2424 17012G20KT P6SM VCSH SCT025 BKN040 OVC070
     FM240200 20012G20KT P6SM BKN025 OVC040
     FM241400 22012G20KT P6SM VCSH BKN025 OVC040
     FM241700 26010KT P6SM SCT035 SCT250=



000
FTUS44 KHUN 232341
TAFHSV
TAF
KHSV 232341Z 2400/2424 17012G20KT P6SM VCSH SCT025 BKN040 OVC070
     FM240200 20012G20KT P6SM BKN025 OVC040
     FM241200 22012G20KT P6SM VCSH BKN025 OVC040
     FM241500 26010KT P6SM SCT035 SCT250=



000
FTUS44 KHUN 232341
TAFMSL
TAF
KMSL 232341Z 2400/2424 17012G20KT P6SM VCSH SCT025 BKN040 OVC070
     FM240200 20012G20KT P6SM BKN025 OVC040
     FM241400 22012G20KT P6SM VCSH BKN025 OVC040
     FM241700 26010KT P6SM SCT035 SCT250=



000
FTUS44 KHUN 232341
TAFHSV
TAF
KHSV 232341Z 2400/2424 17012G20KT P6SM VCSH SCT025 BKN040 OVC070
     FM240200 20012G20KT P6SM BKN025 OVC040
     FM241200 22012G20KT P6SM VCSH BKN025 OVC040
     FM241500 26010KT P6SM SCT035 SCT250=



000
FTUS44 KHUN 232341
TAFMSL
TAF
KMSL 232341Z 2400/2424 17012G20KT P6SM VCSH SCT025 BKN040 OVC070
     FM240200 20012G20KT P6SM BKN025 OVC040
     FM241400 22012G20KT P6SM VCSH BKN025 OVC040
     FM241700 26010KT P6SM SCT035 SCT250=



000
FTUS44 KHUN 231728
TAFHSV
TAF
KHSV 231728Z 2318/2418 12017G22KT 6SM BR VCSH BKN015 OVC025
     FM232000 18015G20KT 6SM -SHRA OVC009
     FM240000 18015G20KT P6SM VCSH OVC015
     FM240600 21014G18KT P6SM BKN030
     FM241300 25017G22KT P6SM OVC050=



000
FTUS44 KHUN 231728
TAFMSL
TAF
KMSL 231728Z 2318/2418 14015G20KT 6SM -SHRA OVC009
     FM232300 20014G18KT 6SM BR VCSH OVC015
     FM240500 22012G16KT P6SM BKN030
     FM241200 26017G22KT P6SM OVC050=



000
FTUS44 KHUN 231728
TAFHSV
TAF
KHSV 231728Z 2318/2418 12017G22KT 6SM BR VCSH BKN015 OVC025
     FM232000 18015G20KT 6SM -SHRA OVC009
     FM240000 18015G20KT P6SM VCSH OVC015
     FM240600 21014G18KT P6SM BKN030
     FM241300 25017G22KT P6SM OVC050=



000
FTUS44 KHUN 231728
TAFMSL
TAF
KMSL 231728Z 2318/2418 14015G20KT 6SM -SHRA OVC009
     FM232300 20014G18KT 6SM BR VCSH OVC015
     FM240500 22012G16KT P6SM BKN030
     FM241200 26017G22KT P6SM OVC050=



000
FTUS44 KHUN 231138
TAFHSV
TAF
KHSV 231138Z 2312/2412 12015G20KT P6SM VCSH SCT020 BKN040
      TEMPO 2312/2314 4SM -SHRA BKN020
     FM231400 12017G22KT 6SM -SHRA OVC025
     FM232200 18015G20KT 6SM BR VCSH OVC012
     FM240600 20014G18KT P6SM BKN030=



000
FTUS44 KHUN 231138
TAFMSL
TAF
KMSL 231138Z 2312/2412 12012G17KT P6SM VCSH OVC020
     FM231500 14015G20KT 6SM -SHRA OVC030
     FM232100 20014G18KT 6SM BR VCSH OVC010
     FM240500 22012G16KT P6SM BKN030=



000
FTUS44 KHUN 231138
TAFMSL
TAF
KMSL 231138Z 2312/2412 12012G17KT P6SM VCSH OVC020
     FM231500 14015G20KT 6SM -SHRA OVC030
     FM232100 20014G18KT 6SM BR VCSH OVC010
     FM240500 22012G16KT P6SM BKN030=



000
FTUS44 KHUN 231138
TAFHSV
TAF
KHSV 231138Z 2312/2412 12015G20KT P6SM VCSH SCT020 BKN040
      TEMPO 2312/2314 4SM -SHRA BKN020
     FM231400 12017G22KT 6SM -SHRA OVC025
     FM232200 18015G20KT 6SM BR VCSH OVC012
     FM240600 20014G18KT P6SM BKN030=



000
FTUS44 KHUN 230846 AAA
TAFHSV
TAF AMD
KHSV 230846Z 2309/2406 12012G17KT P6SM BKN025
     FM231000 11012G20KT P6SM VCSH BKN015 OVC025
     FM231500 11015G25KT P6SM SHRA BKN008 BKN015 OVC025
     FM231900 13015G25KT P6SM SHRA VCTS BKN008CB BKN015 OVC025
     FM232200 19012G20KT P6SM BKN015 OVC025=



000
FTUS44 KHUN 230846 AAA
TAFHSV
TAF AMD
KHSV 230846Z 2309/2406 12012G17KT P6SM BKN025
     FM231000 11012G20KT P6SM VCSH BKN015 OVC025
     FM231500 11015G25KT P6SM SHRA BKN008 BKN015 OVC025
     FM231900 13015G25KT P6SM SHRA VCTS BKN008CB BKN015 OVC025
     FM232200 19012G20KT P6SM BKN015 OVC025=



    US Dept of Commerce
    National Oceanic and Atmospheric Administration
    National Weather Service
    1325 East West Highway
    Silver Spring, MD 20910
    Page Author: NWS Internet Services Team
Disclaimer
Information Quality
Credits
Glossary
Privacy Policy
Freedom of Information Act (FOIA)
About Us
Career Opportunities